Time;durP1;ratioP1;P1;durP2;ratioP2;P2;SDS_P1;SDS_P2;PMS_P1;PMS_P2;Temp;Humidity;BMP_temperature;BMP_pressure;BME280_temperature;BME280_humidity;BME280_pressure;Samples;Min_cycle;Max_cycle;Signal;HPM_P1;HPM_P2
2023/02/19 00:01:20;;;;;;;20.93;17.17;;;9.50;99.90;;;;;;5035701;28;20734;-64
2023/02/19 00:03:51;;;;;;;19.23;16.10;;;9.50;99.90;;;;;;5031622;28;20662;-63
2023/02/19 00:06:20;;;;;;;20.57;17.40;;;9.50;99.90;;;;;;5034534;28;20446;-63
2023/02/19 00:08:47;;;;;;;19.40;16.37;;;9.50;99.90;;;;;;5032810;28;20461;-62
2023/02/19 00:11:16;;;;;;;18.80;16.77;;;9.50;99.90;;;;;;5035588;28;20434;-62
2023/02/19 00:13:46;;;;;;;18.83;16.17;;;9.50;99.90;;;;;;5021489;28;20472;-62
2023/02/19 00:16:16;;;;;;;17.37;15.20;;;9.50;99.90;;;;;;5015679;28;20456;-62
2023/02/19 00:18:44;;;;;;;17.40;14.30;;;9.40;99.90;;;;;;5026127;28;20784;-63
2023/02/19 00:21:13;;;;;;;15.87;14.10;;;9.40;99.90;;;;;;5035768;28;20441;-62
2023/02/19 00:23:40;;;;;;;20.17;16.30;;;9.40;99.90;;;;;;5035290;28;20884;-63
2023/02/19 00:26:09;;;;;;;19.03;16.13;;;9.50;99.90;;;;;;5035802;28;21134;-63
2023/02/19 00:28:37;;;;;;;17.43;15.53;;;9.40;99.90;;;;;;5035518;28;20469;-62
2023/02/19 00:31:05;;;;;;;18.67;14.87;;;9.40;99.90;;;;;;5035811;28;20485;-62
2023/02/19 00:33:33;;;;;;;15.53;13.37;;;9.40;99.90;;;;;;5035167;28;20494;-63
2023/02/19 00:36:01;;;;;;;18.60;15.10;;;9.40;99.90;;;;;;5035735;28;20485;-63
2023/02/19 00:38:30;;;;;;;15.30;13.70;;;9.50;99.90;;;;;;5034364;28;20495;-63
2023/02/19 00:40:59;;;;;;;17.07;15.27;;;9.50;99.90;;;;;;5033502;28;20469;-63
2023/02/19 00:43:27;;;;;;;16.53;13.70;;;9.40;99.90;;;;;;5031503;28;20892;-63
2023/02/19 00:45:54;;;;;;;14.23;12.70;;;9.40;99.90;;;;;;5034900;28;20442;-63
2023/02/19 00:48:21;;;;;;;13.30;11.90;;;9.40;99.90;;;;;;5033490;28;20562;-63
2023/02/19 00:50:48;;;;;;;15.40;13.40;;;9.40;99.90;;;;;;5034738;28;20574;-63
2023/02/19 00:53:15;;;;;;;14.27;12.77;;;9.40;99.90;;;;;;5034790;28;20558;-63
2023/02/19 00:55:44;;;;;;;13.40;11.40;;;9.40;99.90;;;;;;5033810;28;20471;-62
2023/02/19 00:58:11;;;;;;;13.57;11.90;;;9.40;99.90;;;;;;5034876;28;20499;-63
2023/02/19 01:00:38;;;;;;;14.10;12.00;;;9.40;99.90;;;;;;5035053;28;20478;-64
2023/02/19 01:03:05;;;;;;;15.53;12.47;;;9.40;99.90;;;;;;5034859;28;20474;-64
2023/02/19 01:05:33;;;;;;;16.43;14.03;;;9.40;99.90;;;;;;5034205;28;20897;-63
2023/02/19 01:08:01;;;;;;;15.97;13.47;;;9.40;99.90;;;;;;5034631;28;20474;-64
2023/02/19 01:10:28;;;;;;;15.00;13.23;;;9.40;99.90;;;;;;5033148;28;20470;-63
2023/02/19 01:12:56;;;;;;;14.60;12.43;;;9.40;99.90;;;;;;5031531;28;20497;-65
2023/02/19 01:15:23;;;;;;;14.57;12.03;;;9.40;99.90;;;;;;5028381;28;20494;-65
2023/02/19 01:17:50;;;;;;;15.60;12.50;;;9.40;99.90;;;;;;5012865;28;20775;-65
2023/02/19 01:20:18;;;;;;;15.33;13.03;;;9.40;99.90;;;;;;5024873;28;20472;-64
2023/02/19 01:22:45;;;;;;;16.57;13.77;;;9.40;99.90;;;;;;5031701;28;20991;-64
2023/02/19 01:25:12;;;;;;;22.93;15.80;;;9.40;99.90;;;;;;5031784;28;20838;-64
2023/02/19 01:27:39;;;;;;;22.53;17.50;;;9.40;99.90;;;;;;5030850;28;20479;-63
2023/02/19 01:30:09;;;;;;;19.80;15.87;;;9.40;99.90;;;;;;5031653;28;20465;-63
2023/02/19 01:32:37;;;;;;;22.87;17.37;;;9.40;99.90;;;;;;5032468;28;20463;-63
2023/02/19 01:35:04;;;;;;;20.53;16.30;;;9.40;99.90;;;;;;5031857;28;20485;-63
2023/02/19 01:37:31;;;;;;;22.10;16.97;;;9.40;99.90;;;;;;5032609;28;20465;-63
2023/02/19 01:39:58;;;;;;;20.37;15.37;;;9.40;99.90;;;;;;5033010;28;20483;-63
2023/02/19 01:42:25;;;;;;;21.67;16.33;;;9.40;99.90;;;;;;5032340;28;20460;-64
2023/02/19 01:45:22;;;;;;;22.33;17.00;;;9.40;99.90;;;;;;5033402;28;20469;-63
2023/02/19 01:48:00;;;;;;;20.37;16.10;;;9.40;99.90;;;;;;5033263;28;20855;-63
2023/02/19 01:50:30;;;;;;;21.30;16.07;;;9.40;99.90;;;;;;5030814;28;20899;-62
2023/02/19 01:52:59;;;;;;;22.73;17.57;;;9.40;99.90;;;;;;5032458;28;20469;-64
2023/02/19 01:55:26;;;;;;;22.50;18.03;;;9.40;99.90;;;;;;5032275;28;20464;-64
2023/02/19 01:57:56;;;;;;;23.23;18.30;;;9.40;99.90;;;;;;5032046;28;20465;-65
2023/02/19 02:00:24;;;;;;;22.73;17.07;;;9.40;99.90;;;;;;5032706;28;20544;-63
2023/02/19 02:02:54;;;;;;;21.13;17.17;;;9.40;99.90;;;;;;5031906;28;20464;-64
2023/02/19 02:05:36;;;;;;;22.00;17.87;;;9.40;99.90;;;;;;5033405;28;20465;-63
2023/02/19 02:10:50;;;;;;;23.40;16.27;;;9.40;99.90;;;;;;5033519;28;20561;-64
2023/02/19 02:13:17;;;;;;;23.00;16.57;;;9.30;99.90;;;;;;5034441;28;20892;-64
2023/02/19 02:15:54;;;;;;;21.53;16.27;;;9.40;99.90;;;;;;5033498;28;20455;-64
2023/02/19 02:18:32;;;;;;;24.57;17.63;;;9.40;99.90;;;;;;5033834;28;20463;-63
2023/02/19 02:21:27;;;;;;;25.07;17.70;;;9.40;99.90;;;;;;5033801;28;20463;-63
2023/02/19 02:24:31;;;;;;;27.83;17.63;;;9.40;99.90;;;;;;5033041;28;20479;-63
2023/02/19 02:27:17;;;;;;;23.57;17.00;;;9.40;99.90;;;;;;5033743;28;20469;-63
2023/02/19 02:30:17;;;;;;;24.63;18.90;;;9.30;99.90;;;;;;5034084;28;20963;-62
2023/02/19 02:32:52;;;;;;;22.17;17.10;;;9.30;99.90;;;;;;5032516;28;20524;-63
2023/02/19 02:35:22;;;;;;;26.70;18.00;;;9.30;99.90;;;;;;5033879;28;20481;-63
2023/02/19 02:37:51;;;;;;;24.07;16.03;;;9.40;99.90;;;;;;5034290;28;20760;-64
2023/02/19 02:40:19;;;;;;;28.87;17.37;;;9.40;99.90;;;;;;5033351;28;20589;-63
2023/02/19 02:42:47;;;;;;;28.23;18.40;;;9.40;99.90;;;;;;5033681;28;20763;-63
2023/02/19 02:45:37;;;;;;;24.00;17.27;;;9.30;99.90;;;;;;5032828;28;20463;-63
2023/02/19 02:48:14;;;;;;;23.13;17.87;;;9.40;99.90;;;;;;5033638;28;20467;-64
2023/02/19 02:50:46;;;;;;;25.17;17.27;;;9.40;99.90;;;;;;5033300;28;20505;-64
2023/02/19 02:56:04;;;;;;;23.33;17.47;;;9.40;99.90;;;;;;5033362;28;20447;-63
2023/02/19 02:58:32;;;;;;;24.27;16.90;;;9.40;99.90;;;;;;5032005;28;20466;-63
2023/02/19 03:03:54;;;;;;;28.30;18.10;;;9.40;99.90;;;;;;5014161;28;20935;-63
2023/02/19 03:06:23;;;;;;;27.10;18.30;;;9.30;99.90;;;;;;5014164;28;20439;-63
2023/02/19 03:08:54;;;;;;;24.63;17.63;;;9.30;99.90;;;;;;5033819;28;20528;-64
2023/02/19 03:19:52;;;;;;;21.60;17.03;;;9.30;99.90;;;;;;5035401;28;20470;-62
2023/02/19 03:22:24;;;;;;;27.10;19.53;;;9.30;99.90;;;;;;5036436;28;20766;-63
2023/02/19 03:27:42;;;;;;;25.43;17.70;;;9.20;99.90;;;;;;5035868;28;20449;-62
2023/02/19 03:30:13;;;;;;;23.87;17.30;;;9.30;99.90;;;;;;5036187;28;20778;-62
2023/02/19 03:32:45;;;;;;;24.30;17.70;;;9.20;99.90;;;;;;5036146;28;20464;-63
2023/02/19 03:35:17;;;;;;;24.60;18.67;;;9.30;99.90;;;;;;5035973;28;20463;-63
2023/02/19 03:37:50;;;;;;;27.97;17.47;;;9.30;99.90;;;;;;5036094;28;20464;-63
2023/02/19 03:40:17;;;;;;;26.00;18.53;;;9.30;99.90;;;;;;5035881;28;20501;-63
2023/02/19 03:42:56;;;;;;;28.57;18.40;;;9.20;99.90;;;;;;5036000;28;20749;-63
2023/02/19 03:45:43;;;;;;;25.97;18.23;;;9.30;99.90;;;;;;5036496;28;20557;-63
2023/02/19 03:48:23;;;;;;;25.83;17.57;;;9.20;99.90;;;;;;5035391;28;20452;-63
2023/02/19 03:51:04;;;;;;;25.33;18.57;;;9.30;99.90;;;;;;5036159;28;20459;-64
2023/02/19 03:53:38;;;;;;;25.60;17.70;;;9.20;99.90;;;;;;5016256;28;20564;-63
2023/02/19 03:56:11;;;;;;;29.97;19.23;;;9.20;99.90;;;;;;5016517;28;20471;-64
2023/02/19 03:58:48;;;;;;;27.90;18.77;;;9.20;99.90;;;;;;5015699;28;20452;-63
2023/02/19 04:01:19;;;;;;;29.67;18.47;;;9.20;99.90;;;;;;5016170;28;20467;-63
2023/02/19 04:03:53;;;;;;;30.23;18.87;;;9.20;99.90;;;;;;5034333;28;20470;-63
2023/02/19 04:06:25;;;;;;;27.53;19.83;;;9.20;99.90;;;;;;5035560;28;20463;-62
2023/02/19 04:08:55;;;;;;;30.50;19.80;;;9.20;99.90;;;;;;5035824;28;20467;-63
2023/02/19 04:11:24;;;;;;;36.30;19.40;;;9.20;99.90;;;;;;5035924;28;20455;-62
2023/02/19 04:13:56;;;;;;;29.50;19.20;;;9.20;99.90;;;;;;5034641;28;20471;-63
2023/02/19 04:16:28;;;;;;;22.47;16.87;;;9.20;99.90;;;;;;5035517;28;20463;-64
2023/02/19 04:19:02;;;;;;;26.70;19.33;;;9.10;99.90;;;;;;5035466;28;20467;-62
2023/02/19 04:21:32;;;;;;;25.80;19.37;;;9.20;99.90;;;;;;5035598;28;20467;-63
2023/02/19 04:24:04;;;;;;;31.03;18.60;;;9.10;99.90;;;;;;5035235;28;20463;-62
2023/02/19 04:26:33;;;;;;;26.53;18.30;;;9.10;99.90;;;;;;5034894;28;20467;-62
2023/02/19 04:29:01;;;;;;;29.37;18.30;;;9.10;99.90;;;;;;5035515;28;20441;-62
2023/02/19 04:31:29;;;;;;;26.30;19.03;;;9.10;99.90;;;;;;5034697;28;20557;-62
2023/02/19 04:33:58;;;;;;;24.37;17.97;;;9.10;99.90;;;;;;5034931;28;20558;-62
2023/02/19 04:36:25;;;;;;;22.90;17.87;;;9.10;99.90;;;;;;5034831;28;20444;-63
2023/02/19 04:38:52;;;;;;;25.33;17.00;;;9.10;99.90;;;;;;5035083;28;20752;-64
2023/02/19 04:41:19;;;;;;;22.93;16.67;;;9.10;99.90;;;;;;5035295;28;20469;-63
2023/02/19 04:43:47;;;;;;;27.87;17.80;;;9.00;99.90;;;;;;5035108;28;20477;-63
2023/02/19 04:46:14;;;;;;;22.47;17.17;;;9.00;99.90;;;;;;5035096;28;20438;-64
2023/02/19 04:48:42;;;;;;;25.73;18.30;;;9.00;99.90;;;;;;5034932;28;20463;-64
2023/02/19 04:51:11;;;;;;;27.37;19.60;;;9.00;99.90;;;;;;5035189;28;20466;-63
2023/02/19 04:53:38;;;;;;;27.53;19.77;;;9.00;99.90;;;;;;5035231;28;20487;-63
2023/02/19 04:56:07;;;;;;;28.57;19.90;;;9.00;99.90;;;;;;5034543;28;20467;-64
2023/02/19 04:58:35;;;;;;;28.47;21.33;;;9.00;99.90;;;;;;5034272;28;20777;-64
2023/02/19 05:01:02;;;;;;;28.67;19.20;;;9.00;99.90;;;;;;5035221;28;20510;-63
2023/02/19 05:03:29;;;;;;;22.63;17.93;;;9.00;99.90;;;;;;5035052;28;20488;-61
2023/02/19 05:05:56;;;;;;;23.10;17.50;;;9.00;99.90;;;;;;5035111;28;20463;-62
2023/02/19 05:08:25;;;;;;;23.60;15.90;;;9.00;99.90;;;;;;5034470;28;20495;-62
2023/02/19 05:10:52;;;;;;;25.83;16.20;;;8.90;99.90;;;;;;5034961;28;20754;-63
2023/02/19 05:13:19;;;;;;;22.93;16.30;;;8.90;99.90;;;;;;5034495;28;20500;-63
2023/02/19 05:15:55;;;;;;;20.57;15.13;;;8.90;99.90;;;;;;5034890;28;20463;-62
2023/02/19 05:18:23;;;;;;;18.33;13.00;;;8.90;99.90;;;;;;5034617;27;20494;-63
2023/02/19 05:20:51;;;;;;;16.90;12.13;;;8.90;99.90;;;;;;5034758;28;20593;-62
2023/02/19 05:23:18;;;;;;;14.60;12.37;;;8.90;99.90;;;;;;5033699;28;20487;-64
2023/02/19 05:25:46;;;;;;;19.70;14.50;;;8.80;99.90;;;;;;5034974;28;20459;-64
2023/02/19 05:28:19;;;;;;;19.23;14.70;;;8.90;99.90;;;;;;5034707;28;20726;-63
2023/02/19 05:30:48;;;;;;;27.33;18.80;;;8.80;99.90;;;;;;5034675;28;20463;-62
2023/02/19 05:33:16;;;;;;;24.80;17.80;;;8.80;99.90;;;;;;5034807;28;20467;-64
2023/02/19 05:35:44;;;;;;;25.37;17.93;;;8.80;99.90;;;;;;5034637;28;20508;-64
2023/02/19 05:38:12;;;;;;;27.03;18.83;;;8.80;99.90;;;;;;5032890;28;20467;-64
2023/02/19 05:40:40;;;;;;;29.57;21.30;;;8.80;99.90;;;;;;5034269;28;20527;-64
2023/02/19 05:43:09;;;;;;;31.87;23.30;;;8.80;99.90;;;;;;5033283;28;20463;-64
2023/02/19 05:45:37;;;;;;;37.17;25.40;;;8.80;99.90;;;;;;5034482;28;20470;-64
2023/02/19 05:48:05;;;;;;;40.17;27.27;;;8.90;99.90;;;;;;5033911;28;20469;-64
2023/02/19 05:50:34;;;;;;;36.57;26.90;;;8.80;99.90;;;;;;5034089;28;20451;-64
2023/02/19 05:53:02;;;;;;;39.93;28.20;;;8.90;99.90;;;;;;5034287;28;20462;-64
2023/02/19 05:55:29;;;;;;;39.27;28.20;;;8.80;99.90;;;;;;5034138;28;20495;-64
2023/02/19 05:57:57;;;;;;;39.00;27.07;;;8.80;99.90;;;;;;5034422;28;20888;-64
2023/02/19 06:00:26;;;;;;;38.63;26.80;;;8.80;99.90;;;;;;5033219;28;20935;-64
2023/02/19 06:02:53;;;;;;;32.40;24.90;;;8.80;99.90;;;;;;5034783;28;20541;-64
2023/02/19 06:05:20;;;;;;;32.13;24.90;;;8.80;99.90;;;;;;5033823;28;20742;-63
2023/02/19 06:07:49;;;;;;;27.80;22.50;;;8.80;99.90;;;;;;5034315;28;20467;-62
2023/02/19 06:10:17;;;;;;;32.70;25.27;;;8.80;99.90;;;;;;5033202;28;20463;-62
2023/02/19 06:12:44;;;;;;;25.53;21.70;;;8.70;99.90;;;;;;5033865;28;20509;-63
2023/02/19 06:15:11;;;;;;;32.50;24.63;;;8.80;99.90;;;;;;5034480;28;20466;-62
2023/02/19 06:17:40;;;;;;;38.93;24.17;;;8.70;99.90;;;;;;5034198;28;20463;-63
2023/02/19 06:20:08;;;;;;;37.63;23.37;;;8.80;99.90;;;;;;5033482;28;20498;-62
2023/02/19 06:22:35;;;;;;;34.07;24.10;;;8.80;99.90;;;;;;5014241;28;20484;-64
2023/02/19 06:25:02;;;;;;;33.47;21.87;;;8.70;99.90;;;;;;5020247;28;20459;-63
2023/02/19 06:27:30;;;;;;;27.87;20.30;;;8.70;99.90;;;;;;5034015;28;20464;-63
2023/02/19 06:29:57;;;;;;;29.70;19.90;;;8.70;99.90;;;;;;5033944;28;20459;-63
2023/02/19 06:32:24;;;;;;;26.27;21.03;;;8.70;99.90;;;;;;5032913;28;20897;-63
2023/02/19 06:34:52;;;;;;;23.87;19.40;;;8.70;99.90;;;;;;5033147;28;20694;-64
2023/02/19 06:37:20;;;;;;;31.20;20.50;;;8.70;99.90;;;;;;5033466;28;20467;-63
2023/02/19 06:39:47;;;;;;;29.60;21.20;;;8.60;99.90;;;;;;5032133;28;20471;-63
2023/02/19 06:42:14;;;;;;;24.30;19.37;;;8.60;99.90;;;;;;5031774;28;20757;-63
2023/02/19 06:44:41;;;;;;;28.27;20.23;;;8.60;99.90;;;;;;5031601;28;20463;-63
2023/02/19 06:47:08;;;;;;;27.90;20.70;;;8.50;99.90;;;;;;5031530;28;20463;-63
2023/02/19 06:49:35;;;;;;;27.47;19.50;;;8.60;99.90;;;;;;5032985;28;20916;-63
2023/02/19 06:52:04;;;;;;;26.00;18.83;;;8.60;99.90;;;;;;5031517;28;20455;-63
2023/02/19 06:54:32;;;;;;;24.03;15.60;;;8.60;99.90;;;;;;5033696;28;20491;-62
2023/02/19 06:56:59;;;;;;;17.30;13.87;;;8.60;99.90;;;;;;5034736;28;20463;-64
2023/02/19 06:59:27;;;;;;;20.23;12.27;;;8.60;99.90;;;;;;5035251;28;20887;-65
2023/02/19 07:01:54;;;;;;;22.03;12.43;;;8.60;99.90;;;;;;5035340;28;20495;-64
2023/02/19 07:04:21;;;;;;;19.30;13.07;;;8.60;99.90;;;;;;5035186;28;20902;-63
2023/02/19 07:06:48;;;;;;;18.40;15.00;;;8.60;99.90;;;;;;5034705;28;20445;-64
2023/02/19 07:09:17;;;;;;;17.63;13.40;;;8.60;99.90;;;;;;5036362;28;20466;-65
2023/02/19 07:11:44;;;;;;;19.33;12.73;;;8.60;99.90;;;;;;5037292;28;20459;-65
2023/02/19 07:14:15;;;;;;;15.67;12.20;;;8.50;99.90;;;;;;5037202;28;20497;-65
2023/02/19 07:16:42;;;;;;;18.90;12.67;;;8.50;99.90;;;;;;5036510;28;20473;-63
2023/02/19 07:19:11;;;;;;;17.67;13.13;;;8.50;99.90;;;;;;5035683;28;20473;-64
2023/02/19 07:21:38;;;;;;;17.13;13.50;;;8.50;99.90;;;;;;5036064;28;20498;-63
2023/02/19 07:24:06;;;;;;;17.43;12.67;;;8.50;99.90;;;;;;5037040;28;20469;-64
2023/02/19 07:26:34;;;;;;;16.83;14.27;;;8.50;99.90;;;;;;5036504;28;20733;-65
2023/02/19 07:29:02;;;;;;;19.40;14.30;;;8.50;99.90;;;;;;5033611;28;20475;-63
2023/02/19 07:31:29;;;;;;;22.93;14.77;;;8.50;99.90;;;;;;5036337;28;20470;-63
2023/02/19 07:33:56;;;;;;;24.13;14.50;;;8.50;99.90;;;;;;5035040;28;20475;-64
2023/02/19 07:36:24;;;;;;;19.43;15.13;;;8.50;99.90;;;;;;5036554;28;20463;-64
2023/02/19 07:38:55;;;;;;;21.40;16.53;;;8.50;99.90;;;;;;5036403;28;20467;-64
2023/02/19 07:41:23;;;;;;;24.53;17.80;;;8.60;99.90;;;;;;5036240;28;20502;-63
2023/02/19 07:43:52;;;;;;;26.40;18.30;;;8.50;99.90;;;;;;5035968;28;20463;-63
2023/02/19 07:46:19;;;;;;;27.77;18.13;;;8.60;99.90;;;;;;5035790;28;20470;-63
2023/02/19 07:48:47;;;;;;;26.50;17.80;;;8.60;99.90;;;;;;5036250;28;20463;-63
2023/02/19 07:51:17;;;;;;;26.90;18.60;;;8.50;99.90;;;;;;5036233;28;20463;-64
2023/02/19 07:53:45;;;;;;;22.97;18.60;;;8.60;99.90;;;;;;5035676;28;20887;-63
2023/02/19 07:56:13;;;;;;;23.07;18.37;;;8.50;99.90;;;;;;5035820;28;20892;-64
2023/02/19 07:58:40;;;;;;;26.60;18.67;;;8.60;99.90;;;;;;5035449;28;20463;-65
2023/02/19 08:01:10;;;;;;;24.40;20.03;;;8.50;99.90;;;;;;5036141;28;20502;-64
2023/02/19 08:03:37;;;;;;;29.47;19.80;;;8.50;99.90;;;;;;5035910;28;20442;-63
2023/02/19 08:06:04;;;;;;;28.73;19.07;;;8.60;99.90;;;;;;5029893;28;20837;-63
2023/02/19 08:08:32;;;;;;;28.63;19.90;;;8.60;99.90;;;;;;5032945;28;20474;-63
2023/02/19 08:13:43;;;;;;;32.93;20.20;;;8.60;99.90;;;;;;5012890;28;20462;-64
2023/02/19 08:16:14;;;;;;;26.70;21.70;;;8.60;99.90;;;;;;5035156;28;20455;-65
2023/02/19 08:18:42;;;;;;;29.20;21.37;;;8.60;99.90;;;;;;5035488;28;20483;-65
2023/02/19 08:21:09;;;;;;;34.00;22.30;;;8.60;99.90;;;;;;5035202;28;20495;-65
2023/02/19 08:23:36;;;;;;;29.77;22.07;;;8.70;99.90;;;;;;5035758;28;20474;-65
2023/02/19 08:26:04;;;;;;;36.57;19.27;;;8.70;99.90;;;;;;5033947;28;20908;-65
2023/02/19 08:28:31;;;;;;;26.70;21.07;;;8.70;99.90;;;;;;5033861;28;20839;-65
2023/02/19 08:31:01;;;;;;;29.30;21.30;;;8.90;99.90;;;;;;5033929;28;20903;-65
2023/02/19 08:33:30;;;;;;;27.97;21.33;;;8.90;99.90;;;;;;5033972;28;20472;-65
2023/02/19 08:36:03;;;;;;;27.37;21.13;;;8.90;99.90;;;;;;5033365;28;20459;-65
2023/02/19 08:38:30;;;;;;;26.63;20.13;;;9.00;99.90;;;;;;5033181;28;20463;-65
2023/02/19 08:40:58;;;;;;;30.13;21.80;;;9.00;99.90;;;;;;5034746;28;20491;-65
2023/02/19 08:43:25;;;;;;;23.63;19.10;;;9.00;99.90;;;;;;5035618;28;20516;-65
2023/02/19 08:45:54;;;;;;;30.37;20.50;;;9.00;99.90;;;;;;5035487;28;20463;-64
2023/02/19 08:48:21;;;;;;;24.20;18.43;;;9.10;99.90;;;;;;5034987;28;20827;-65
2023/02/19 08:50:56;;;;;;;29.97;21.30;;;9.10;99.90;;;;;;5033961;28;20464;-64
2023/02/19 08:53:24;;;;;;;27.57;20.70;;;9.10;99.90;;;;;;5033748;28;20528;-64
2023/02/19 08:55:52;;;;;;;33.83;20.97;;;9.10;99.90;;;;;;5035495;28;20467;-64
2023/02/19 08:58:19;;;;;;;33.40;22.90;;;9.10;99.90;;;;;;5034811;28;20464;-64
2023/02/19 09:00:46;;;;;;;27.73;23.60;;;9.10;99.90;;;;;;5034019;28;20927;-64
2023/02/19 09:03:13;;;;;;;37.37;26.00;;;9.10;99.90;;;;;;5015555;28;20460;-64
2023/02/19 09:05:41;;;;;;;35.63;25.40;;;9.20;99.90;;;;;;5015322;28;20582;-64
2023/02/19 09:08:10;;;;;;;34.33;24.67;;;9.30;99.90;;;;;;5015359;28;20464;-64
2023/02/19 09:10:37;;;;;;;32.73;24.87;;;9.30;99.90;;;;;;5024019;28;20460;-64
2023/02/19 09:13:04;;;;;;;34.73;25.37;;;9.20;99.90;;;;;;5034217;28;20782;-64
2023/02/19 09:15:32;;;;;;;30.33;22.00;;;9.10;99.90;;;;;;5033819;28;20463;-63
2023/02/19 09:17:59;;;;;;;27.77;19.17;;;9.10;99.90;;;;;;5033795;28;20731;-64
2023/02/19 09:20:26;;;;;;;32.47;21.10;;;9.10;99.90;;;;;;5033065;28;20550;-64
2023/02/19 09:22:57;;;;;;;23.00;18.27;;;9.20;99.90;;;;;;5034689;28;20510;-63
2023/02/19 09:25:26;;;;;;;29.40;19.33;;;9.30;99.90;;;;;;5034351;28;20470;-64
2023/02/19 09:27:55;;;;;;;33.57;18.80;;;9.40;99.90;;;;;;5034770;28;20463;-64
2023/02/19 09:30:22;;;;;;;27.83;17.00;;;9.30;99.90;;;;;;5034288;28;20467;-63
2023/02/19 09:32:50;;;;;;;22.30;16.60;;;9.10;99.90;;;;;;5034345;28;21037;-63
2023/02/19 09:35:17;;;;;;;25.37;15.77;;;9.10;99.90;;;;;;5034376;28;20896;-63
2023/02/19 09:37:44;;;;;;;24.10;15.60;;;9.00;99.90;;;;;;5034961;28;20475;-63
2023/02/19 09:40:12;;;;;;;23.13;14.30;;;9.10;99.90;;;;;;5034531;28;20459;-63
2023/02/19 09:42:43;;;;;;;21.07;14.47;;;9.10;99.90;;;;;;5032068;28;20497;-63
2023/02/19 09:45:18;;;;;;;24.10;16.07;;;9.00;99.90;;;;;;5033813;28;20465;-63
2023/02/19 09:47:46;;;;;;;20.70;14.57;;;9.00;99.90;;;;;;5032896;28;20463;-63
2023/02/19 09:50:20;;;;;;;19.10;13.40;;;9.00;99.90;;;;;;5032883;28;20463;-63
2023/02/19 09:52:52;;;;;;;21.53;12.33;;;9.10;99.90;;;;;;5032285;28;20458;-65
2023/02/19 09:55:27;;;;;;;16.77;12.80;;;9.30;99.90;;;;;;5032539;28;20491;-64
2023/02/19 09:57:58;;;;;;;17.97;12.33;;;9.40;99.90;;;;;;5031062;28;20466;-64
2023/02/19 10:00:27;;;;;;;15.83;11.13;;;9.30;99.90;;;;;;5030922;28;20455;-64
2023/02/19 10:03:01;;;;;;;15.03;10.33;;;9.40;99.90;;;;;;5031256;28;20487;-64
2023/02/19 10:05:29;;;;;;;17.67;12.10;;;9.40;99.90;;;;;;5027891;28;20754;-63
2023/02/19 10:07:56;;;;;;;16.50;12.03;;;9.50;99.90;;;;;;5032788;28;20736;-64
2023/02/19 10:10:30;;;;;;;16.23;11.87;;;9.40;99.90;;;;;;5015374;28;20892;-63
2023/02/19 10:13:14;;;;;;;15.53;11.20;;;9.40;99.90;;;;;;5014742;28;20752;-62
2023/02/19 10:15:47;;;;;;;17.83;11.60;;;9.40;99.90;;;;;;5032902;28;20467;-63
2023/02/19 10:18:18;;;;;;;12.90;11.20;;;9.30;99.90;;;;;;5032213;28;20463;-64
2023/02/19 10:20:46;;;;;;;12.97;10.50;;;9.20;99.90;;;;;;5031714;28;20467;-63
2023/02/19 10:23:15;;;;;;;15.37;10.90;;;9.30;99.90;;;;;;5031834;28;20478;-62
2023/02/19 10:25:46;;;;;;;13.37;9.93;;;9.30;99.90;;;;;;5032206;28;20451;-63
2023/02/19 10:28:18;;;;;;;13.03;10.97;;;9.50;99.90;;;;;;5033015;28;20469;-63
2023/02/19 10:30:49;;;;;;;13.77;9.23;;;9.40;99.90;;;;;;5036736;28;20498;-63
2023/02/19 10:33:16;;;;;;;15.17;9.20;;;9.40;99.90;;;;;;5037361;28;20924;-63
2023/02/19 10:35:58;;;;;;;11.20;9.10;;;9.50;99.90;;;;;;5036879;28;20904;-63
2023/02/19 10:38:28;;;;;;;11.67;10.03;;;9.30;99.90;;;;;;5036605;28;20716;-63
2023/02/19 10:41:01;;;;;;;13.00;10.90;;;9.20;99.90;;;;;;5037412;28;20895;-64
2023/02/19 10:43:33;;;;;;;13.90;11.23;;;9.10;99.90;;;;;;5037403;28;20740;-63
2023/02/19 10:46:04;;;;;;;13.73;11.47;;;9.00;99.90;;;;;;5037232;28;20462;-64
2023/02/19 10:48:34;;;;;;;14.87;11.10;;;9.10;99.90;;;;;;5036595;28;20485;-64
2023/02/19 10:51:05;;;;;;;17.10;12.40;;;9.00;99.90;;;;;;5037217;28;20465;-62
2023/02/19 10:53:43;;;;;;;19.77;13.53;;;9.20;99.90;;;;;;5037098;28;20744;-62
2023/02/19 10:56:13;;;;;;;15.07;11.93;;;9.50;99.90;;;;;;5037266;28;20455;-63
2023/02/19 10:58:43;;;;;;;12.40;10.13;;;9.50;99.90;;;;;;5036865;28;20458;-63
2023/02/19 11:01:21;;;;;;;14.37;11.10;;;9.50;99.90;;;;;;5035772;28;20820;-63
2023/02/19 11:03:50;;;;;;;11.40;9.60;;;9.60;99.90;;;;;;5037406;28;20471;-63
2023/02/19 11:06:20;;;;;;;10.47;9.43;;;9.80;99.90;;;;;;5036784;28;20934;-63
2023/02/19 11:08:53;;;;;;;13.30;9.30;;;9.90;99.90;;;;;;5036617;28;20528;-64
2023/02/19 11:11:27;;;;;;;7.30;6.57;;;10.20;99.90;;;;;;5036458;28;20460;-63
2023/02/19 11:13:57;;;;;;;6.60;5.80;;;10.30;99.90;;;;;;5036583;28;20459;-63
2023/02/19 11:16:36;;;;;;;8.87;7.00;;;10.40;99.90;;;;;;5036713;28;20837;-63
2023/02/19 11:19:03;;;;;;;11.23;5.90;;;10.60;99.90;;;;;;5036285;28;20880;-62
2023/02/19 11:21:32;;;;;;;7.67;6.53;;;10.60;99.90;;;;;;5031091;28;20494;-63
2023/02/19 11:24:01;;;;;;;9.57;7.60;;;10.40;99.90;;;;;;5030115;28;20471;-62
2023/02/19 11:26:34;;;;;;;8.17;6.23;;;10.40;99.90;;;;;;5023822;28;20471;-62
2023/02/19 11:29:17;;;;;;;8.10;7.30;;;10.30;99.90;;;;;;5036628;28;20515;-62
2023/02/19 11:31:45;;;;;;;9.70;7.77;;;10.40;99.90;;;;;;5027731;28;20487;-62
2023/02/19 11:34:29;;;;;;;11.30;7.93;;;10.40;99.90;;;;;;5036710;28;20743;-62
2023/02/19 11:37:10;;;;;;;11.83;9.23;;;10.20;99.90;;;;;;5036075;28;20459;-63
2023/02/19 11:39:39;;;;;;;13.60;9.40;;;10.20;99.90;;;;;;5036140;28;20473;-62
2023/02/19 11:42:30;;;;;;;11.60;9.40;;;10.10;99.90;;;;;;5035658;28;20494;-62
2023/02/19 11:45:22;;;;;;;10.37;9.27;;;9.90;99.90;;;;;;5035533;28;20845;-62
2023/02/19 11:48:10;;;;;;;10.50;9.30;;;10.00;99.90;;;;;;5035552;28;20462;-62
2023/02/19 11:50:50;;;;;;;10.83;9.33;;;9.90;99.90;;;;;;5034387;28;20451;-62
2023/02/19 11:53:25;;;;;;;11.63;9.87;;;10.00;99.90;;;;;;5033502;28;20462;-62
2023/02/19 11:56:07;;;;;;;9.73;8.73;;;10.00;99.90;;;;;;5033895;28;20893;-63
2023/02/19 11:58:59;;;;;;;13.93;10.10;;;9.90;99.90;;;;;;5033661;28;20462;-63
2023/02/19 12:01:43;;;;;;;12.70;10.83;;;9.90;99.90;;;;;;5033483;28;20467;-62
2023/02/19 12:04:46;;;;;;;11.57;10.30;;;10.00;99.90;;;;;;5016533;28;20457;-61
2023/02/19 12:07:25;;;;;;;12.80;11.50;;;10.10;99.90;;;;;;5018639;28;20463;-62
2023/02/19 12:10:03;;;;;;;21.60;11.60;;;9.90;99.90;;;;;;5035395;28;20459;-62
2023/02/19 12:12:45;;;;;;;12.77;11.47;;;9.90;99.90;;;;;;5035102;28;20432;-62
2023/02/19 12:15:45;;;;;;;13.50;12.20;;;10.00;99.90;;;;;;5035414;28;20466;-62
2023/02/19 12:18:37;;;;;;;14.50;12.33;;;9.90;99.90;;;;;;5035759;28;20494;-61
2023/02/19 12:21:19;;;;;;;13.97;12.53;;;9.90;99.90;;;;;;5035711;28;20900;-62
2023/02/19 12:24:13;;;;;;;16.00;12.57;;;10.00;99.90;;;;;;5032799;28;20467;-62
2023/02/19 12:26:47;;;;;;;12.67;10.50;;;9.90;99.90;;;;;;5034123;28;20474;-62
2023/02/19 12:29:27;;;;;;;10.90;9.33;;;9.80;99.90;;;;;;5014859;28;20459;-62
2023/02/19 12:32:25;;;;;;;10.70;9.60;;;9.70;99.90;;;;;;5015724;28;20460;-62
2023/02/19 12:35:14;;;;;;;11.37;10.10;;;9.60;99.90;;;;;;5030683;28;20475;-62
2023/02/19 12:37:51;;;;;;;10.50;9.23;;;9.60;99.90;;;;;;5035020;28;20455;-63
2023/02/19 12:40:33;;;;;;;8.67;7.87;;;9.50;99.90;;;;;;5035138;28;20458;-62
2023/02/19 12:43:11;;;;;;;8.20;7.40;;;9.50;99.90;;;;;;5035557;28;20491;-63
2023/02/19 12:45:45;;;;;;;8.27;6.50;;;9.30;99.90;;;;;;5034580;28;20464;-63
2023/02/19 12:48:19;;;;;;;8.20;7.23;;;9.10;99.90;;;;;;5035063;28;20572;-63
2023/02/19 12:50:53;;;;;;;6.33;5.73;;;9.10;99.90;;;;;;5034087;28;20462;-64
2023/02/19 12:53:40;;;;;;;6.50;5.20;;;9.20;99.90;;;;;;5034957;28;20764;-63
2023/02/19 12:56:14;;;;;;;6.63;5.30;;;9.30;99.90;;;;;;5035484;28;20770;-62
2023/02/19 12:58:45;;;;;;;7.97;6.57;;;9.30;99.90;;;;;;5035163;28;20459;-62
2023/02/19 13:01:19;;;;;;;6.10;4.63;;;9.40;99.90;;;;;;5034664;28;20520;-62
2023/02/19 13:03:52;;;;;;;8.13;5.53;;;9.60;99.90;;;;;;5021156;28;20519;-62
2023/02/19 13:06:33;;;;;;;6.80;6.00;;;9.70;99.90;;;;;;5024194;28;20500;-62
2023/02/19 13:09:07;;;;;;;8.90;6.00;;;9.90;99.90;;;;;;5032609;28;20465;-62
2023/02/19 13:11:38;;;;;;;7.70;6.90;;;10.00;99.90;;;;;;5034576;28;20463;-62
2023/02/19 13:14:13;;;;;;;9.03;6.27;;;9.80;99.90;;;;;;5018988;28;20491;-62
2023/02/19 13:16:46;;;;;;;11.33;6.00;;;9.90;99.90;;;;;;5034862;28;20569;-62
2023/02/19 13:19:14;;;;;;;7.93;6.17;;;9.90;99.90;;;;;;5034967;28;20469;-62
2023/02/19 13:24:36;;;;;;;7.10;5.73;;;9.70;99.90;;;;;;5014526;28;20446;-62